Flight Track Log - Related Links

Times and Time Zones

All times are in EDT time to prevent confusion due to time zone crossing. See the RPA3253 flight status page for this flight to view local times or setup timezone preferences in your user account.

Time Position Orientation Groundspeed Altitude Reporting Facility
EDT Latitude Longitude Course Direction KTS MPH feet Rate Location/Type
Fri 07:39:35 PM 42.8067 -73.8297 180° South 181 208 2,300  Level Boston Center
Fri 07:40:17 PM 42.8375 -73.8672 318° Northwest 225 259 3,600 2,155 Climbing Boston Center
Fri 07:41:00 PM 42.4585 -74.1172 180° South  Level Estimated
Fri 07:41:18 PM 42.8931 -73.9250 323° Northwest 268 308 6,000  Level Boston Center
Fri 07:42:00 PM 42.3857 -74.1955 170° South  Level Estimated
Fri 07:42:16 PM 42.9169 -74.0136 290° West 253 291 8,900  Level Boston Center
Fri 07:43:00 PM 42.3129 -74.2737 180° South  Level Estimated
Fri 07:43:16 PM 42.9281 -74.1103 279° West 253 291 11,100  Level Boston Center
Fri 07:44:00 PM 42.2400 -74.3517 169° South  Level Estimated
Fri 07:44:17 PM 42.8975 -74.1944 244° Southwest 250 288 13,300  Level Boston Center
Fri 07:45:00 PM 42.1671 -74.4295 180° South  Level Estimated
Fri 07:45:17 PM 42.8208 -74.1725 168° South 202 232 15,100  Level Boston Center
Fri 07:46:18 PM 42.7339 -74.1219 157° South 266 306 17,200 1,686 Climbing Boston Center
Fri 07:47:18 PM 42.6492 -74.0772 159° South 313 360 18,500 1,350 Climbing Boston Center
Fri 07:48:18 PM 42.5539 -74.0269 159° South 346 398 19,900 1,373 Climbing Boston Center
Fri 07:49:16 PM 42.4589 -73.9739 158° South 366 421 21,200 1,169 Climbing Boston Center
Fri 07:50:16 PM 42.3553 -73.9178 158° South 381 438 22,200 1,100 Climbing Boston Center
Fri 07:51:16 PM 42.2497 -73.8594 158° South 406 467 23,400 1,240 Climbing Boston Center
Fri 07:52:17 PM 42.1422 -73.8008 158° South 412 474 24,700 787 Climbing Boston Center
Fri 07:53:18 PM 42.0322 -73.7567 163° South 412 474 25,000 787 Climbing Boston Center
Fri 07:55:20 PM 41.8275 -73.8442 198° South 380 437 27,100 1,094 Climbing New Center
Fri 07:56:19 PM 41.7261 -73.9006 203° Southwest 386 444 28,300 1,169 Climbing New Center
Fri 07:57:18 PM 41.6247 -73.9569 203° Southwest 397 457 29,400 850 Climbing New Center
Fri 07:58:19 PM 41.5231 -74.0131 202° Southwest 397 457 30,000 298 Climbing New Center
Fri 07:59:19 PM 41.4197 -74.0689 202° Southwest 397 457 30,000  Level New Center
Fri 08:00:20 PM 41.3139 -74.1244 202° Southwest 397 457 30,000  Level New Center
Fri 08:01:19 PM 41.2061 -74.1825 202° Southwest 404 465 30,000  Level New Center
Fri 08:02:20 PM 41.1003 -74.2378 201° Southwest 409 471 30,000  Level New Center
Fri 08:03:20 PM 40.9944 -74.2928 201° Southwest 409 471 30,000  Level New Center
Fri 08:04:20 PM 40.8908 -74.3478 202° Southwest 409 471 30,000  Level New Center
Fri 08:05:19 PM 40.7889 -74.4136 206° Southwest 414 476 30,000  Level New Center
Fri 08:06:19 PM 40.7208 -74.5194 230° Southwest 394 453 30,000  Level New Center
Fri 08:07:18 PM 40.6572 -74.6228 231° Southwest 382 440 30,000  Level New Center
Fri 08:08:18 PM 40.5911 -74.7283 231° Southwest 382 440 30,000  Level New Center
Fri 08:09:20 PM 40.5208 -74.8308 228° Southwest 382 440 30,000  Level New Center
Fri 08:10:20 PM 40.4486 -74.9356 228° Southwest 382 440 30,000  Level New Center
Fri 08:11:18 PM 40.3739 -75.0400 227° Southwest 387 445 30,000  Level New Center
Fri 08:12:18 PM 40.2994 -75.1417 226° Southwest 392 451 30,000  Level New Center
Fri 08:13:18 PM 40.2286 -75.2486 229° Southwest 392 451 30,000  Level New Center
Fri 08:14:18 PM 40.1539 -75.3522 227° Southwest 397 457 30,000  Level New Center
Fri 08:15:18 PM 40.0767 -75.4586 227° Southwest 397 457 30,000  Level New Center
Fri 08:16:19 PM 40.0014 -75.5644 227° Southwest 403 464 30,000  Level New Center
Fri 08:17:20 PM 39.9264 -75.6678 227° Southwest 403 464 30,000  Level New Center
Fri 08:18:18 PM 39.8550 -75.7764 229° Southwest 403 464 30,000  Level New Center
Fri 08:19:18 PM 39.7856 -75.8875 231° Southwest 403 464 30,000  Level New Center
Fri 08:20:19 PM 39.7139 -76.0011 231° Southwest 403 464 30,000  Level New Center
Fri 08:22:36 PM 39.5597 -76.2456 231° Southwest 402 463 30,000  Level Washington Center
Fri 08:23:36 PM 39.4842 -76.3578 229° Southwest 402 463 30,000  Level Washington Center
Fri 08:24:37 PM 39.4125 -76.4672 230° Southwest 402 463 30,000  Level Washington Center
Fri 08:25:38 PM 39.3322 -76.5897 230° Southwest 402 463 30,000  Level Washington Center
Fri 08:26:36 PM 39.2625 -76.7014 231° Southwest 402 463 30,000  Level Washington Center
Fri 08:27:37 PM 39.1906 -76.8128 230° Southwest 402 463 30,000  Level Washington Center
Fri 08:28:38 PM 39.1186 -76.9267 231° Southwest 402 463 30,000  Level Washington Center
Fri 08:29:38 PM 39.0464 -77.0350 229° Southwest 402 463 30,000  Level Washington Center
Fri 08:30:36 PM 38.9597 -77.1292 220° Southwest 407 468 30,000  Level Washington Center
Fri 08:31:37 PM 38.8711 -77.2286 221° Southwest 419 482 30,000  Level Washington Center
Fri 08:32:38 PM 38.7819 -77.3253 220° Southwest 419 482 30,000  Level Washington Center
Fri 08:33:38 PM 38.6931 -77.4217 220° Southwest 424 488 30,000  Level Washington Center
Fri 08:34:36 PM 38.6039 -77.5178 220° Southwest 424 488 30,000  Level Washington Center
Fri 08:35:37 PM 38.5339 -77.5956 221° Southwest 424 488 30,000  Level Washington Center
Fri 08:36:37 PM 38.4361 -77.7017 220° Southwest 424 488 30,000  Level Washington Center
Fri 08:37:38 PM 38.3469 -77.7969 220° Southwest 424 488 30,000  Level Washington Center
Fri 08:38:36 PM 38.2597 -77.8950 221° Southwest 424 488 30,000  Level Washington Center
Fri 08:39:37 PM 38.1681 -77.9925 220° Southwest 424 488 30,000  Level Washington Center
Fri 08:40:38 PM 38.0786 -78.0844 219° Southwest 424 488 30,000  Level Washington Center
Fri 08:41:38 PM 38.0039 -78.1692 222° Southwest 424 488 30,000  Level Washington Center
Fri 08:42:39 PM 37.9239 -78.2900 230° Southwest 411 473 30,000  Level Washington Center
Fri 08:43:36 PM 37.8397 -78.4106 229° Southwest 416 479 30,000  Level Washington Center
Fri 08:44:36 PM 37.7642 -78.5181 228° Southwest 416 479 30,000  Level Washington Center
Fri 08:45:37 PM 37.6906 -78.6256 229° Southwest 416 479 30,000 -148 Level Washington Center
Fri 08:46:38 PM 37.6236 -78.7200 228° Southwest 416 479 29,700 -885 Descending Washington Center
Fri 08:47:39 PM 37.5478 -78.8267 228° Southwest 416 479 28,200 -857 Descending Washington Center
Fri 08:48:37 PM 37.4697 -78.9333 227° Southwest 416 479 28,000 -102 Descending Washington Center
Fri 08:49:37 PM 37.3939 -79.0372 227° Southwest 416 479 28,000  Level Washington Center
Fri 08:50:38 PM 37.3175 -79.1461 229° Southwest 416 479 28,000  Level Washington Center
Fri 08:51:39 PM 37.2286 -79.2567 225° Southwest 416 479 28,000  Level Washington Center
Fri 08:52:37 PM 37.1322 -79.3381 214° Southwest 416 479 28,000  Level Washington Center
Fri 08:53:37 PM 37.0358 -79.4192 214° Southwest 421 484 28,000 -50 Level Washington Center
Fri 08:54:38 PM 36.9372 -79.5000 213° Southwest 421 484 27,900 -393 Descending Washington Center
Fri 08:55:39 PM 36.8408 -79.5783 213° Southwest 427 491 27,200 -712 Descending Washington Center
Fri 08:56:36 PM 36.7592 -79.6467 214° Southwest 427 491 26,500 -712 Descending Washington Center
Fri 08:57:37 PM 36.6689 -79.7222 214° Southwest 411 473 25,800 -690 Descending Washington Center
Fri 08:58:29 PM 36.5792 -79.7914 212° Southwest 387 445 25,200 -696 Descending Atlanta Center
Fri 08:59:29 PM 36.4917 -79.8581 211° Southwest 375 432 24,500 -1,000 Descending Atlanta Center
Fri 09:00:29 PM 36.4106 -79.9242 213° Southwest 375 432 23,200 -1,250 Descending Atlanta Center
Fri 09:01:29 PM 36.3275 -79.9953 215° Southwest 380 437 22,000 -600 Descending Atlanta Center
Fri 09:02:29 PM 36.2422 -80.0692 215° Southwest 380 437 22,000 -550 Level Atlanta Center
Fri 09:03:29 PM 36.1467 -80.1458 213° Southwest 380 437 20,900 -1,500 Descending Atlanta Center
Fri 09:04:29 PM 36.0697 -80.2136 215° Southwest 372 428 19,000 -1,891 Descending Atlanta Center
Fri 09:05:01 PM 36.0272 -80.2567 219° Southwest 356 410 18,000 -1,680 Descending Atlanta Center
Fri 09:05:44 PM 35.9722 -80.3031 214° Southwest 345 397 16,900 -1,705 Descending Atlanta Center
Fri 09:06:29 PM 35.9111 -80.3519 213° Southwest 360 414 15,500 -1,855 Descending Atlanta Center
Fri 09:07:34 PM 35.8339 -80.4219 216° Southwest 326 375 13,500 -1,750 Descending Atlanta Center
Fri 09:08:29 PM 35.7689 -80.4786 215° Southwest 329 379 12,000 -1,617 Descending Atlanta Center
Fri 09:09:29 PM 35.7167 -80.5553 230° Southwest 300 345 10,400 -1,550 Descending Atlanta Center
Fri 09:10:29 PM 35.6647 -80.6342 231° Southwest 294 338 8,900 -1,550 Descending Atlanta Center
Fri 09:11:29 PM 35.6144 -80.7050 229° Southwest 289 333 7,300 -1,400 Descending Atlanta Center
Fri 09:12:29 PM 35.5683 -80.7708 229° Southwest 289 333 6,100 -1,350 Descending Atlanta Center
Fri 09:13:29 PM 35.5203 -80.8417 230° Southwest 289 333 4,600 -1,000 Descending Atlanta Center
Fri 09:14:35 PM 35.4594 -80.9103 223° Southwest 261 300 4,000 -283 Descending Atlanta Center
Fri 09:15:36 PM 35.4017 -80.9406 203° Southwest 212 244 4,000 -313 Level Atlanta Center
Fri 09:16:30 PM 35.3561 -80.9525 192° South 177 204 3,400 -887 Descending Atlanta Center
Fri 09:17:31 PM 35.3081 -80.9467 174° South 181 208 2,300 -934 Descending Atlanta Center
Fri 09:18:32 PM 35.2642 -80.9431 176° South 137 158 1,500 -738 Descending Atlanta Center
Fri 09:19:33 PM 35.2283 -80.9394 175° South 128 147 800 -689 Descending Atlanta Center

Login

Don't have an account? Register now (free) for customized features, flight alerts, and more!